Stunt Ranch Reserve, Santa Monica Mtns, California Weather observations

Data are for 10 minute period ending at time listed.
 Day   Time   Solar   Ave.   Ave.  Ave.  Vector  Max.   Baro.   Total    
  of    of     Rad.   Air    Rel.  Wind   Wind   Wind  Press.  Precip.   
Year   Day            Temp.  Hum.  Speed  Dir.   Gust                    
2017   (PST)  Kw/m2    F      %     mph   deg.    mph    mb.     in.     
-------------------------------------------------------------------------
 112    7:10   0.24   69.5    36    1.2   295     2.8   966.8    0.00 
 112    7:20   0.27   70.8    36    0.5    64     1.8   966.8    0.00 
 112    7:30   0.26   70.9    39    0.4    84     1.2   966.8    0.00 
 112    7:40   0.39   71.9    36    0.3   340     1.6   966.8    0.00 
 112    7:50   0.46   73.6    32    0.8   347     2.2   966.8    0.00 
 112    8:00   0.47   74.7    30    1.0   300     2.3   966.8    0.00 
 112    8:10   0.53   77.1    27    1.3   289     2.3   966.8    0.00 
 112    8:20   0.52   78.7    27    1.3   298     2.2   966.5    0.00 
 112    8:30   0.59   80.0    27    1.9   288     3.2   966.5    0.00 
 112    8:40   0.61   81.4    28    2.4   283     3.9   966.5    0.00 
 112    8:50   0.66   82.6    25    2.6   287     4.1   966.5    0.00 
 112    9:00   0.69   83.4    24    2.9   281     4.5   966.5    0.00 
 112    9:10   0.71   84.5    22    3.7   285     6.1   966.5    0.00 
 112    9:20   0.74   84.5    23    4.1   282     6.1   966.5    0.00 
 112    9:30   0.77   85.4    23    3.4   297     6.1   966.8    0.00 
 112    9:40   0.79   86.8    23    3.1   290     6.1   966.8    0.00 
 112    9:50   0.81   87.6    22    3.1   284     6.1   966.8    0.00 
 112   10:00   0.84   88.9    21    3.6   283     7.5   966.8    0.00 
 112   10:10   0.85   90.6    20    3.3   278     5.9   966.8    0.00 
 112   10:20   0.87   90.8    20    3.2   282     7.0   966.8    0.00 
 112   10:30   0.88   91.7    20    3.7   283     8.8   966.8    0.00 
 112   10:40   0.90   92.2    19    3.7   283     7.4   966.8    0.00 
 112   10:50   0.91   92.6    19    3.4   288     8.0   966.8    0.00 
 112   11:00   0.92   93.7    20    3.4   282     8.6   966.8    0.00 
 112   11:10   0.92   93.3    19    3.9   283     7.4   966.8    0.00 
 112   11:20   0.93   93.3    19    2.9   288     6.9   966.5    0.00 
 112   11:30   0.93   94.0    18    3.6   279     7.6   966.5    0.00 
 112   11:40   0.93   94.6    19    3.3   287     8.0   966.5    0.00 
 112   11:50   0.93   95.1    20    3.0   284     7.5   966.5    0.00 
 112   12:00   0.94   94.8    19    3.6   288     8.6   966.1    0.00 
 112   12:10   0.94   93.5    18    3.6   294     9.1   966.1    0.00 
 112   12:20   0.94   94.0    17    3.1   292     6.7   966.1    0.00 
 112   12:30   0.93   94.7    16    3.3   288     8.1   966.1    0.00 
 112   12:40   0.93   94.7    16    2.9   305     8.0   966.1    0.00 
 112   12:50   0.87   94.4    16    3.4   288    10.8   966.1    0.00 
 112   13:00   0.91   95.2    16    3.2   288     8.9   966.1    0.00 
 112   13:10   0.88   95.6    16    3.1   280    10.5   966.1    0.00 
 112   13:20   0.87   95.2    15    2.9   281     9.6   966.1    0.00 
 112   13:30   0.84   95.3    14    1.4   302     7.5   965.8    0.00 
 112   13:40   0.81   93.1    14    4.1   249    10.9   965.8    0.00 
 112   13:50   0.77   89.9    14    3.8   244    10.3   965.8    0.00 
 112   14:00   0.76   90.1    15    2.4   261    10.7   965.8    0.00 
 112   14:10   0.76   92.0    15    2.0   321    10.4   965.8    0.00 
 112   14:20   0.73   92.6    14    3.2   290    11.8   965.8    0.00 
 112   14:30   0.68   92.5    15    1.2    31     7.2   965.5    0.00 
 112   14:40   0.63   91.5    14    3.0   302    13.3   965.5    0.00 
 112   14:50   0.64   92.1    15    1.5   328     7.4   965.5    0.00 
 112   15:00   0.66   92.5    14    2.7   291     9.4   965.5    0.00 
 112   15:10   0.63   91.7    14    3.6   281     9.1   965.5    0.00 
 112   15:20   0.59   91.1    16    1.8   301     6.9   965.5    0.00 
 112   15:30   0.56   91.8    16    3.2   285     8.9   965.5    0.00 
 112   15:40   0.53   92.0    17    2.7   285     9.6   965.5    0.00 
 112   15:50   0.49   90.9    17    4.8   309    10.8   965.5    0.00 
 112   16:00   0.44   89.3    17    6.0   319    13.9   965.5    0.00 
 112   16:10   0.43   88.5    17    4.6   310    11.8   965.5    0.00 
 112   16:20   0.40   88.9    17    5.4   325    11.5   965.5    0.00 
 112   16:30   0.35   88.6    17    4.7   318    10.4   965.5    0.00 
 112   16:40   0.31   87.8    18    4.3   314     9.8   965.5    0.00 
 112   16:50   0.22   87.5    18    3.4   311     8.6   965.5    0.00 
 112   17:00   0.23   85.6    20    1.5   299     5.2   965.1    0.00 
 112   17:10   0.21   84.2    21    1.1   308     3.9   965.1    0.00 
 112   17:20   0.19   83.8    21    1.0   308     3.9   965.1    0.00 
 112   17:30   0.16   82.9    21    1.7   301     6.4   965.1    0.00 
 112   17:40   0.09   81.6    22    2.9   318     7.6   964.8    0.00 
 112   17:50   0.05   79.6    24    1.1   301     6.0   964.8    0.00 
 112   18:00   0.04   77.7    24    1.2   286     5.3   964.8    0.00 
 112   18:10   0.03   76.5    23    1.0   275     3.9   964.4    0.00 
 112   18:20   0.02   75.9    23    0.8   285     2.9   964.4    0.00 
 112   18:30   0.01   74.9    25    2.1   197     3.7   964.4    0.00 
 112   18:40   0.00   73.5    26    1.9   199     3.7   964.4    0.00 
 112   18:50   0.00   73.1    26    1.6   204     3.0   964.8    0.00 
 112   19:00   0.00   72.5    25    0.6   195     2.0   964.8    0.00 
 112   19:10   0.00   72.3    25    1.3   198     3.7   964.8    0.00 
 112   19:20   0.00   72.4    23    1.9   240     3.6   964.8    0.00 
 112   19:30   0.00   71.0    26    3.4   277     4.8   964.8    0.00 
 112   19:40   0.00   69.9    26    0.8   211     2.2   965.1    0.00 
 112   19:50   0.00   68.9    28    2.6   157     5.2   965.1    0.00 
 112   20:00   0.00   70.0    26    0.6   240     1.7   965.1    0.00 
 112   20:10   0.00   69.7    27    0.4   228     1.3   965.1    0.00 
 112   20:20   0.00   69.6    27    0.3   263     0.9   965.1    0.00 
 112   20:30   0.00   69.9    26    0.7   214     2.0   965.1    0.00 
 112   20:40   0.00   70.6    26    1.7   271     2.3   965.1    0.00 
 112   20:50   0.00   69.5    28    0.5   250     1.7   965.1    0.00 
 112   21:00   0.00   68.8    31    1.3   198     2.3   965.1    0.00 
 112   21:10   0.00   68.3    34    0.5   226     2.0   965.5    0.00 
 112   21:20   0.00   68.1    32    2.2   143     3.4   965.1    0.00 
 112   21:30   0.00   68.7    30    1.5   170     3.3   965.1    0.00 
 112   21:40   0.00   69.6    30    1.6   242     3.8   965.1    0.00 
 112   21:50   0.00   70.4    25    2.0   155     5.6   964.8    0.00 
 112   22:00   0.00   71.3    24    3.6   237     7.5   964.8    0.00 
 112   22:10   0.00   68.0    30    3.1   184     5.6   964.8    0.00 
 112   22:20   0.00   68.2    28    1.7   235     3.2   964.8    0.00 
 112   22:30   0.00   69.2    29    1.3   104     2.6   964.8    0.00 
 112   22:40   0.00   69.5    29    2.5   243     6.4   964.8    0.00 
 112   22:50   0.00   67.0    33    2.8   258     5.8   964.8    0.00 
 112   23:00   0.00   66.4    34    1.2    48     3.1   965.1    0.00 
 112   23:10   0.00   65.1    36    2.4   248     4.6   965.1    0.00 
 112   23:20   0.00   65.3    37    1.8   194     3.6   965.1    0.00 
 112   23:30   0.00   65.3    37    2.0   270     4.2   965.1    0.00 
 112   23:40   0.00   65.3    37    1.5   261     2.7   965.1    0.00 
 112   23:50   0.00   65.1    37    0.8   126     3.3   965.1    0.00 
 113    0:00   0.00   64.6    37    1.8   131     2.9   965.1    0.00 
 113    0:10   0.00   65.3    36    0.7   212     1.9   964.8    0.00 
 113    0:20   0.00   64.9    37    3.5   150     6.6   964.8    0.00 
 113    0:30   0.00   64.8    36    1.6   120     3.7   964.4    0.00 
 113    0:40   0.00   64.7    38    3.2   290     5.4   964.4    0.00 
 113    0:50   0.00   62.4    42    1.2   144     3.2   964.4    0.00 
 113    1:00   0.00   61.4    43    2.0   134     3.1   964.4    0.00 
 113    1:10   0.00   61.7    42    2.1   134     2.8   964.4    0.00 
 113    1:20   0.00   62.1    42    0.8   122     2.4   964.4    0.00 
 113    1:30   0.00   60.8    45    2.2   120     4.3   964.4    0.00 
 113    1:40   0.00   61.7    43    0.9   158     2.1   964.1    0.00 
 113    1:50   0.00   62.1    43    1.3   132     2.6   964.1    0.00 
 113    2:00   0.00   61.5    44    0.5   122     1.6   964.1    0.00 
 113    2:10   0.00   61.2    44    0.0   331     0.7   964.4    0.00 
 113    2:20   0.00   60.8    46    0.1   275     0.7   964.4    0.00 
 113    2:30   0.00   60.6    46    0.2   155     1.2   964.1    0.00 
 113    2:40   0.00   60.9    46    0.5   207     1.2   964.1    0.00 
 113    2:50   0.00   60.4    49    1.2   113     3.2   964.1    0.00 
 113    3:00   0.00   60.4    50    4.0   137     5.3   964.1    0.00 
 113    3:10   0.00   61.0    52    1.6   122     3.8   964.1    0.00 
 113    3:20   0.00   61.1    52    1.5   110     4.8   964.1    0.00 
 113    3:30   0.00   60.7    55    1.6   108     4.1   963.8    0.00 
 113    3:40   0.00   60.6    55    1.6    38     3.7   963.8    0.00 
 113    3:50   0.00   60.3    55    1.4    79     2.9   963.8    0.00 
 113    4:00   0.00   59.6    56    3.3   129     5.6   963.8    0.00 
 113    4:10   0.00   59.5    56    1.5    79     4.2   963.8    0.00 
 113    4:20   0.00   59.7    57    2.0    73     5.3   963.8    0.00 
 113    4:30   0.00   59.1    57    1.3    94     3.1   963.8    0.00 
 113    4:40   0.00   58.4    60    0.6    97     1.7   963.8    0.00 
 113    4:50   0.00   57.3    62    1.8   274     4.1   963.8    0.00 
 113    5:00   0.00   56.0    65    0.6   333     1.8   964.1    0.00 
 113    5:10   0.00   55.5    64    2.8   123     4.7   964.1    0.00 
 113    5:20   0.00   56.0    64    1.6   102     4.5   964.1    0.00 
 113    5:30   0.01   56.0    64    0.0     0     0.0   964.1    0.00 
 113    5:40   0.01   55.4    66    1.2   301     2.0   964.4    0.00 
 113    5:50   0.03   55.0    67    1.5   250     3.0   964.4    0.00 
 113    6:00   0.03   55.2    68    2.1   152     3.3   964.4    0.00 
 113    6:10   0.05   55.7    68    2.3   269     6.6   964.4    0.00 
 113    6:20   0.14   57.1    65    2.8   282     5.5   965.1    0.00 
 113    6:30   0.17   60.0    60    1.9    32     3.9   965.5    0.00 
 113    6:40   0.20   59.8    61    3.7   101     5.2   965.5    0.00 
 113    6:50   0.24   61.1    59    2.5    66     5.0   965.1    0.00 
 113    7:00   0.26   62.8    58    2.0   272     4.5   965.1    0.00 

Return to Stunt Ranch Reserve graphs page.


Western Regional Climate Center,wrcc@dri.edu